createdAt,value
2019-04-06T00:00:16.746Z,26.27
2019-04-06T00:02:46.863Z,25.60
2019-04-06T00:05:16.834Z,24.20
2019-04-06T00:07:46.777Z,23.87
2019-04-06T00:10:16.887Z,25.43
2019-04-06T00:12:46.834Z,24.03
2019-04-06T00:15:16.798Z,23.30
2019-04-06T00:17:46.741Z,27.23
2019-04-06T00:20:16.709Z,25.53
2019-04-06T00:22:46.722Z,27.63
2019-04-06T00:25:16.689Z,23.70
2019-04-06T00:27:46.642Z,27.93
2019-04-06T00:30:17.829Z,26.40
2019-04-06T00:33:01.448Z,22.73
2019-04-06T00:35:31.452Z,26.10
2019-04-06T00:38:01.373Z,25.93
2019-04-06T00:40:31.338Z,26.33
2019-04-06T00:43:01.281Z,25.07
2019-04-06T00:45:31.247Z,23.70
2019-04-06T00:48:01.194Z,23.07
2019-04-06T00:50:31.167Z,28.33
2019-04-06T00:53:01.111Z,30.87
2019-04-06T00:55:31.078Z,26.80
2019-04-06T00:58:01.026Z,28.97
2019-04-06T01:00:31.009Z,28.73
2019-04-06T01:03:01.126Z,24.70
2019-04-06T01:05:31.093Z,23.87
2019-04-06T01:08:01.065Z,24.17
2019-04-06T01:10:31.005Z,23.93
2019-04-06T01:13:01.005Z,25.27
2019-04-06T01:15:31.024Z,25.53
2019-04-06T01:18:01.015Z,30.50
2019-04-06T01:20:30.958Z,25.97
2019-04-06T01:23:00.924Z,24.67
2019-04-06T01:25:30.862Z,22.40
2019-04-06T01:28:00.895Z,27.53
2019-04-06T01:30:31.106Z,26.03
2019-04-06T01:33:01.074Z,22.77
2019-04-06T01:35:31.124Z,26.63
2019-04-06T01:38:01.165Z,24.77
2019-04-06T01:40:31.109Z,24.70
2019-04-06T01:43:01.102Z,27.03
2019-04-06T01:45:31.047Z,26.93
2019-04-06T01:48:01.013Z,28.50
2019-04-06T01:50:30.958Z,25.93
2019-04-06T01:53:00.926Z,26.07
2019-04-06T01:55:30.945Z,28.00
2019-04-06T01:58:01.025Z,29.00
2019-04-06T02:00:30.981Z,33.13
2019-04-06T02:03:01.118Z,26.37
2019-04-06T02:05:31.071Z,27.20
2019-04-06T02:08:01.037Z,26.17
2019-04-06T02:10:31.073Z,31.07
2019-04-06T02:13:01.054Z,27.57
2019-04-06T02:15:31.002Z,25.93
2019-04-06T02:18:00.970Z,28.13
2019-04-06T02:20:30.918Z,27.30
2019-04-06T02:23:00.881Z,30.07
2019-04-06T02:25:30.858Z,27.20
2019-04-06T02:28:00.820Z,27.43
2019-04-06T02:30:32.408Z,30.70
2019-04-06T02:33:04.015Z,30.73
2019-04-06T02:35:38.275Z,30.50
2019-04-06T02:38:28.005Z,25.93
2019-04-06T02:40:59.597Z,26.67
2019-04-06T02:43:34.081Z,24.83
2019-04-06T02:46:04.304Z,29.83
2019-04-06T02:48:34.349Z,27.67
2019-04-06T02:51:04.458Z,26.30
2019-04-06T02:53:34.430Z,30.57
2019-04-06T02:56:04.468Z,27.33
2019-04-06T02:58:34.665Z,23.63
2019-04-06T03:01:04.662Z,25.47
2019-04-06T03:03:34.632Z,34.63
2019-04-06T03:06:05.247Z,28.97
2019-04-06T03:08:35.222Z,25.70
2019-04-06T03:11:05.222Z,32.03
2019-04-06T03:13:35.186Z,28.90
2019-04-06T03:16:05.203Z,26.27
2019-04-06T03:18:35.170Z,28.73
2019-04-06T03:21:05.351Z,35.20
2019-04-06T03:23:49.652Z,30.73
2019-04-06T03:26:07.039Z,26.77
2019-04-06T03:28:37.205Z,24.20
2019-04-06T03:31:07.242Z,32.60
2019-04-06T03:33:37.208Z,23.53
2019-04-06T03:36:07.155Z,29.53
2019-04-06T03:38:37.154Z,27.13
2019-04-06T03:41:07.447Z,27.37
2019-04-06T03:43:37.610Z,31.27
2019-04-06T03:46:07.680Z,25.80
2019-04-06T03:48:37.652Z,23.97
2019-04-06T03:51:07.766Z,28.17
2019-04-06T03:53:37.938Z,25.30
2019-04-06T03:56:07.896Z,30.43
2019-04-06T03:58:38.015Z,28.87
2019-04-06T04:01:07.920Z,30.03
2019-04-06T04:03:37.942Z,31.30
2019-04-06T04:06:08.156Z,29.80
2019-04-06T04:08:38.178Z,30.43
2019-04-06T04:11:08.129Z,26.70
2019-04-06T04:13:38.102Z,24.60
2019-04-06T04:16:08.042Z,36.47
2019-04-06T04:18:38.014Z,27.23
2019-04-06T04:21:07.960Z,26.57
2019-04-06T04:23:37.934Z,31.93
2019-04-06T04:26:07.866Z,29.13
2019-04-06T04:28:37.835Z,31.93
2019-04-06T04:31:07.785Z,26.70
2019-04-06T04:33:37.765Z,30.10
2019-04-06T04:36:07.789Z,29.43
2019-04-06T04:38:38.200Z,27.70
2019-04-06T04:41:08.292Z,27.90
2019-04-06T04:43:38.344Z,31.90
2019-04-06T04:46:08.328Z,30.60
2019-04-06T04:48:38.295Z,28.30
2019-04-06T04:51:08.243Z,29.43
2019-04-06T04:53:38.363Z,29.77
2019-04-06T04:56:08.265Z,28.17
2019-04-06T04:58:38.227Z,34.30
2019-04-06T05:01:08.175Z,37.37
2019-04-06T05:03:38.143Z,31.87
2019-04-06T05:06:08.160Z,34.60
2019-04-06T05:08:38.441Z,37.00
2019-04-06T05:11:08.602Z,31.50
2019-04-06T05:13:38.505Z,33.57
2019-04-06T05:16:12.819Z,33.20
2019-04-06T05:18:43.604Z,31.67
2019-04-06T05:21:13.921Z,35.00
2019-04-06T05:23:43.866Z,35.83
2019-04-06T05:26:13.808Z,36.83
2019-04-06T05:28:43.783Z,32.67
2019-04-06T05:31:13.869Z,29.90
2019-04-06T05:33:43.905Z,31.37
2019-04-06T05:36:15.172Z,31.20
2019-04-06T05:38:45.163Z,35.03
2019-04-06T05:41:15.135Z,34.60
2019-04-06T05:43:45.086Z,30.20
2019-04-06T05:46:15.036Z,35.37
2019-04-06T05:48:45.288Z,32.60
2019-04-06T05:51:15.333Z,33.07
2019-04-06T05:53:45.483Z,34.00
2019-04-06T05:56:15.455Z,35.47
2019-04-06T05:58:45.519Z,39.57
2019-04-06T06:01:15.474Z,38.63
2019-04-06T06:03:45.450Z,39.60
2019-04-06T06:06:15.404Z,38.67
2019-04-06T06:08:45.399Z,39.03
2019-04-06T06:11:15.357Z,37.43
2019-04-06T06:13:45.330Z,37.33
2019-04-06T06:16:15.279Z,33.27
2019-04-06T06:18:45.267Z,39.70
2019-04-06T06:21:15.223Z,35.63
2019-04-06T06:23:45.324Z,40.53
2019-04-06T06:26:15.243Z,44.50
2019-04-06T06:28:45.214Z,39.17
2019-04-06T06:31:15.184Z,43.17
2019-04-06T06:33:45.295Z,42.00
2019-04-06T06:36:15.488Z,38.43
2019-04-06T06:38:46.535Z,41.47
2019-04-06T06:41:16.547Z,50.83
2019-04-06T06:43:46.572Z,38.83
2019-04-06T06:46:16.553Z,43.53
2019-04-06T06:48:46.503Z,42.27
2019-04-06T06:51:16.446Z,45.93
2019-04-06T06:53:46.426Z,42.37
2019-04-06T06:56:16.371Z,42.17
2019-04-06T06:58:46.338Z,41.97
2019-04-06T07:01:16.291Z,39.93
2019-04-06T07:03:47.502Z,38.37
2019-04-06T07:06:17.482Z,39.33
2019-04-06T07:08:47.566Z,38.30
2019-04-06T07:11:17.522Z,38.20
2019-04-06T07:13:47.690Z,35.20
2019-04-06T07:16:17.678Z,36.67
2019-04-06T07:18:47.643Z,38.90
2019-04-06T07:21:17.598Z,35.33
2019-04-06T07:23:47.575Z,38.07
2019-04-06T07:26:17.595Z,43.03
2019-04-06T07:28:47.615Z,100.03
2019-04-06T07:31:17.650Z,121.73
2019-04-06T07:33:47.636Z,136.80
2019-04-06T07:36:17.819Z,50.57
2019-04-06T07:38:47.819Z,42.53
2019-04-06T07:41:17.767Z,33.87
2019-04-06T07:43:47.748Z,33.03
2019-04-06T07:46:17.807Z,37.63
2019-04-06T07:48:47.857Z,37.40
2019-04-06T07:51:18.115Z,35.03
2019-04-06T07:53:48.189Z,30.33
2019-04-06T07:56:20.523Z,36.00
2019-04-06T07:58:50.326Z,37.30
2019-04-06T08:01:20.541Z,33.93
2019-04-06T08:03:50.527Z,31.83
2019-04-06T08:06:20.478Z,26.33
2019-04-06T08:08:50.471Z,31.63
2019-04-06T08:11:20.550Z,34.60
2019-04-06T08:13:50.526Z,32.20
2019-04-06T08:16:20.503Z,30.70
2019-04-06T08:18:50.473Z,34.90
2019-04-06T08:21:20.557Z,36.97
2019-04-06T08:23:50.510Z,41.27
2019-04-06T08:26:20.615Z,36.63
2019-04-06T08:28:59.750Z,40.23
2019-04-06T08:31:22.243Z,36.53
2019-04-06T08:33:52.195Z,33.13
2019-04-06T08:36:22.290Z,35.23
2019-04-06T08:38:52.226Z,30.37
2019-04-06T08:41:23.179Z,29.33
2019-04-06T08:43:53.135Z,35.57
2019-04-06T08:46:23.127Z,35.17
2019-04-06T08:48:53.094Z,34.63
2019-04-06T08:51:23.067Z,40.93
2019-04-06T08:53:53.185Z,48.97
2019-04-06T08:56:23.275Z,37.83
2019-04-06T08:58:53.264Z,35.30
2019-04-06T09:01:23.238Z,49.20
2019-04-06T09:03:53.190Z,53.47
2019-04-06T09:06:23.172Z,39.80
2019-04-06T09:08:53.134Z,54.47
2019-04-06T09:11:23.121Z,154.87
2019-04-06T09:13:53.085Z,125.37
2019-04-06T09:16:23.273Z,97.43
2019-04-06T09:18:53.254Z,183.30
2019-04-06T09:21:23.231Z,86.67
2019-04-06T09:23:53.198Z,65.80
2019-04-06T09:26:23.180Z,34.50
2019-04-06T09:28:53.126Z,39.97
2019-04-06T09:31:23.618Z,30.87
2019-04-06T09:33:53.559Z,39.47
2019-04-06T09:36:23.535Z,36.07
2019-04-06T09:38:53.498Z,145.43
2019-04-06T09:41:25.993Z,46.87
2019-04-06T09:43:55.136Z,62.37
2019-04-06T09:46:26.754Z,26.60
2019-04-06T09:49:10.543Z,26.67
2019-04-06T09:51:44.907Z,30.17
2019-04-06T09:54:19.181Z,74.87
2019-04-06T09:56:50.798Z,25.73
2019-04-06T09:59:36.721Z,23.50
2019-04-06T10:02:07.834Z,26.47
2019-04-06T10:04:58.333Z,32.07
2019-04-06T10:07:35.651Z,25.67
2019-04-06T10:10:26.399Z,32.57
2019-04-06T10:13:13.266Z,27.30
2019-04-06T10:15:53.766Z,26.07
2019-04-06T10:18:31.264Z,28.83
2019-04-06T10:21:20.841Z,26.43
2019-04-06T10:24:07.710Z,25.43
2019-04-06T10:26:42.468Z,28.60
2019-04-06T10:29:26.469Z,28.63
2019-04-06T10:32:13.460Z,30.67
2019-04-06T10:34:47.843Z,25.80
2019-04-06T10:37:19.475Z,61.60
2019-04-06T10:40:07.457Z,27.90
2019-04-06T10:42:51.555Z,27.07
2019-04-06T10:45:26.322Z,25.20
2019-04-06T10:48:14.272Z,26.13
2019-04-06T10:51:01.162Z,47.97
2019-04-06T10:53:44.702Z,38.63
2019-04-06T10:56:19.385Z,25.60
2019-04-06T10:58:50.987Z,27.07
2019-04-06T11:01:37.643Z,25.63
2019-04-06T11:04:21.853Z,27.13
2019-04-06T11:06:56.484Z,27.03
2019-04-06T11:09:40.143Z,25.53
2019-04-06T11:12:18.033Z,23.47
2019-04-06T11:14:52.551Z,31.07
2019-04-06T11:17:39.742Z,24.20
2019-04-06T11:20:11.604Z,31.40
2019-04-06T11:23:01.055Z,26.37
2019-04-06T11:25:32.666Z,27.10
2019-04-06T11:28:04.495Z,22.63
2019-04-06T11:30:45.255Z,25.43
2019-04-06T11:33:16.792Z,27.43
2019-04-06T11:36:00.631Z,24.73
2019-04-06T11:38:49.459Z,20.93
2019-04-06T11:41:30.039Z,21.83
2019-04-06T11:44:18.193Z,23.83
2019-04-06T11:46:59.122Z,21.60
2019-04-06T11:49:30.719Z,21.23
2019-04-06T11:52:05.392Z,22.53
2019-04-06T11:54:39.989Z,21.60
2019-04-06T11:57:11.615Z,24.63
2019-04-06T11:59:43.210Z,18.33
2019-04-06T12:02:26.466Z,25.53
2019-04-06T12:04:58.051Z,25.73
2019-04-06T12:07:41.362Z,26.40
2019-04-06T12:10:22.310Z,21.17
2019-04-06T12:12:57.636Z,17.80
2019-04-06T12:15:35.523Z,21.30
2019-04-06T12:18:10.306Z,22.47
2019-04-06T12:20:44.809Z,23.23
2019-04-06T12:23:20.851Z,20.23
2019-04-06T12:25:54.925Z,24.63
2019-04-06T12:28:35.447Z,22.40
2019-04-06T12:31:09.744Z,22.30
2019-04-06T12:34:00.670Z,17.57
2019-04-06T12:36:44.159Z,16.90
2019-04-06T12:39:18.723Z,20.17
2019-04-06T12:41:53.223Z,18.63
2019-04-06T12:44:39.843Z,17.77
2019-04-06T12:47:27.610Z,18.43
2019-04-06T12:50:08.244Z,21.13
2019-04-06T12:52:45.679Z,23.70
2019-04-06T12:55:33.999Z,15.23
2019-04-06T12:58:12.110Z,18.47
2019-04-06T13:01:00.199Z,20.20
2019-04-06T13:03:34.527Z,19.77
2019-04-06T13:06:06.185Z,16.73
2019-04-06T13:08:37.800Z,17.37
2019-04-06T13:11:21.735Z,21.10
2019-04-06T13:14:02.053Z,24.00
2019-04-06T13:16:34.769Z,18.70
2019-04-06T13:19:21.535Z,22.80
2019-04-06T13:21:59.299Z,21.80
2019-04-06T13:24:33.648Z,22.23
2019-04-06T13:27:05.267Z,20.10
2019-04-06T13:29:39.528Z,16.55
2019-04-06T13:32:13.810Z,20.85
2019-04-06T13:34:45.419Z,16.73
2019-04-06T13:37:26.499Z,17.85
2019-04-06T13:40:10.302Z,22.05
2019-04-06T13:42:48.311Z,70.80
2019-04-06T13:45:23.092Z,22.62
2019-04-06T13:48:02.394Z,16.32
2019-04-06T13:50:51.892Z,14.55
2019-04-06T13:53:26.658Z,13.22
2019-04-06T13:56:00.999Z,13.48
2019-04-06T13:58:38.738Z,14.83
2019-04-06T14:01:16.002Z,17.20
2019-04-06T14:03:44.546Z,13.83
2019-04-06T14:06:25.120Z,17.85
2019-04-06T14:08:56.730Z,14.30
2019-04-06T14:11:34.311Z,17.60
2019-04-06T14:14:09.052Z,16.27
2019-04-06T14:16:40.888Z,17.95
2019-04-06T14:19:15.516Z,15.93
2019-04-06T14:21:47.126Z,12.55
2019-04-06T14:24:34.954Z,14.15
2019-04-06T14:27:21.850Z,12.53
2019-04-06T14:30:02.537Z,15.00
2019-04-06T14:32:50.826Z,11.63
2019-04-06T14:35:22.904Z,17.77
2019-04-06T14:38:03.767Z,14.18
2019-04-06T14:40:35.698Z,13.28
2019-04-06T14:43:08.048Z,15.05
2019-04-06T14:45:52.200Z,14.75
2019-04-06T14:48:40.094Z,15.05
2019-04-06T14:51:14.478Z,12.30
2019-04-06T14:53:46.096Z,14.63
2019-04-06T14:56:23.657Z,14.15
2019-04-06T14:59:01.533Z,14.63
2019-04-06T15:01:45.658Z,11.88
2019-04-06T15:04:24.681Z,15.10
2019-04-06T15:07:14.592Z,14.63
2019-04-06T15:09:48.930Z,14.78
2019-04-06T15:12:26.658Z,18.17
2019-04-06T15:15:13.335Z,15.90
2019-04-06T15:17:55.313Z,16.00
2019-04-06T15:20:27.084Z,17.10
2019-04-06T15:23:08.422Z,17.60
2019-04-06T15:25:40.022Z,22.02
2019-04-06T15:28:11.786Z,18.12
2019-04-06T15:30:53.150Z,16.37
2019-04-06T15:33:36.571Z,16.77
2019-04-06T15:36:23.160Z,20.52
2019-04-06T15:38:57.636Z,16.20
2019-04-06T15:41:32.562Z,17.98
2019-04-06T15:44:20.926Z,20.30
2019-04-06T15:47:07.616Z,22.07
2019-04-06T15:49:48.763Z,22.77
2019-04-06T15:52:29.172Z,22.10
2019-04-06T15:55:00.789Z,20.75
2019-04-06T15:57:44.635Z,18.30
2019-04-06T16:00:28.465Z,18.27
2019-04-06T16:03:18.078Z,25.08
2019-04-06T16:05:52.810Z,26.50
2019-04-06T16:08:24.422Z,23.97
2019-04-06T16:10:56.020Z,24.57
2019-04-06T16:13:27.964Z,29.07
2019-04-06T16:16:05.375Z,25.37
2019-04-06T16:18:40.084Z,25.27
2019-04-06T16:21:27.852Z,27.00
2019-04-06T16:24:03.050Z,32.17
2019-04-06T16:26:35.451Z,28.00
2019-04-06T16:29:23.653Z,29.80
2019-04-06T16:31:57.038Z,27.50
2019-04-06T16:34:28.825Z,23.63
2019-04-06T16:37:00.449Z,22.20
2019-04-06T16:39:34.886Z,35.63
2019-04-06T16:42:09.478Z,26.87
2019-04-06T16:44:41.078Z,25.90
2019-04-06T16:47:29.030Z,29.33
2019-04-06T16:50:12.506Z,21.60
2019-04-06T16:52:59.322Z,22.47
2019-04-06T16:55:33.666Z,22.87
2019-04-06T16:58:21.580Z,25.20
2019-04-06T17:01:09.919Z,31.23
2019-04-06T17:03:41.997Z,30.57
2019-04-06T17:06:30.392Z,37.17
2019-04-06T17:09:11.664Z,23.67
2019-04-06T17:12:02.467Z,38.80
2019-04-06T17:14:39.535Z,45.70
2019-04-06T17:17:11.129Z,38.47
2019-04-06T17:20:00.840Z,34.77
2019-04-06T17:22:38.323Z,37.77
2019-04-06T17:25:28.235Z,37.90
2019-04-06T17:28:14.678Z,35.90
2019-04-06T17:30:52.515Z,30.90
2019-04-06T17:33:33.038Z,85.67
2019-04-06T17:36:16.650Z,32.17
2019-04-06T17:38:49.826Z,22.70
2019-04-06T17:41:27.494Z,21.33
2019-04-06T17:43:59.242Z,24.77
2019-04-06T17:46:47.190Z,24.87
2019-04-06T17:49:28.276Z,24.47
2019-04-06T17:52:12.174Z,23.87
2019-04-06T17:54:50.360Z,28.80
2019-04-06T17:57:40.137Z,69.80
2019-04-06T18:00:24.202Z,77.67
2019-04-06T18:03:01.591Z,49.00
2019-04-06T18:05:34.179Z,23.67
2019-04-06T18:08:08.691Z,23.03
2019-04-06T18:10:43.627Z,31.80
2019-04-06T18:13:21.180Z,29.90
2019-04-06T18:15:51.330Z,26.67
2019-04-06T18:18:21.278Z,29.17
2019-04-06T18:20:51.263Z,46.80
2019-04-06T18:23:21.219Z,35.43
2019-04-06T18:25:51.202Z,37.30
2019-04-06T18:28:21.575Z,27.00
2019-04-06T18:30:53.770Z,28.60
2019-04-06T18:33:25.363Z,39.17
2019-04-06T18:35:55.355Z,33.03
2019-04-06T18:38:32.759Z,28.27
2019-04-06T18:41:02.767Z,35.53
2019-04-06T18:43:32.725Z,29.30
2019-04-06T18:46:02.780Z,29.70
2019-04-06T18:48:32.886Z,30.27
2019-04-06T18:51:03.439Z,25.23
2019-04-06T18:53:33.396Z,27.47
2019-04-06T18:56:04.065Z,27.30
2019-04-06T18:58:34.598Z,24.23
2019-04-06T19:01:04.774Z,26.40
2019-04-06T19:03:34.732Z,28.93
2019-04-06T19:06:05.251Z,24.60
2019-04-06T19:08:36.561Z,29.03
2019-04-06T19:11:06.978Z,29.73
2019-04-06T19:13:37.514Z,30.13
2019-04-06T19:16:07.660Z,29.67
2019-04-06T19:18:37.614Z,34.90
2019-04-06T19:21:07.586Z,41.27
2019-04-06T19:23:37.844Z,37.57
2019-04-06T19:26:07.818Z,43.17
2019-04-06T19:28:37.808Z,42.40
2019-04-06T19:31:07.772Z,40.10
2019-04-06T19:33:37.715Z,36.07
2019-04-06T19:36:07.686Z,38.50
2019-04-06T19:38:38.110Z,40.67
2019-04-06T19:41:08.128Z,39.43
2019-04-06T19:43:38.079Z,39.33
2019-04-06T19:46:08.064Z,35.13
2019-04-06T19:48:40.494Z,33.60
2019-04-06T19:51:10.212Z,38.60
2019-04-06T19:53:40.374Z,36.80
2019-04-06T19:56:10.880Z,38.23
2019-04-06T19:58:40.918Z,37.53
2019-04-06T20:01:10.946Z,37.10
2019-04-06T20:03:40.958Z,36.97
2019-04-06T20:06:10.942Z,39.03
2019-04-06T20:08:41.162Z,41.07
2019-04-06T20:11:11.172Z,39.80
2019-04-06T20:13:41.127Z,41.90
2019-04-06T20:16:12.160Z,41.77
2019-04-06T20:18:42.275Z,48.23
2019-04-06T20:21:12.296Z,39.10
2019-04-06T20:23:42.892Z,40.03
2019-04-06T20:26:12.955Z,45.70
2019-04-06T20:28:42.990Z,41.07
2019-04-06T20:31:13.300Z,42.97
2019-04-06T20:33:50.974Z,40.47
2019-04-06T20:36:17.250Z,41.33
2019-04-06T20:38:47.207Z,40.53
2019-04-06T20:41:18.263Z,40.37
2019-04-06T20:43:48.616Z,37.40
2019-04-06T20:46:20.485Z,39.07
2019-04-06T20:48:51.176Z,40.00
2019-04-06T20:51:21.482Z,39.17
2019-04-06T20:53:51.998Z,37.10
2019-04-06T20:56:21.979Z,37.83
2019-04-06T20:58:52.191Z,38.73
2019-04-06T21:01:23.232Z,38.27
2019-04-06T21:04:01.058Z,34.93
2019-04-06T21:06:24.866Z,34.27
2019-04-06T21:08:54.818Z,36.20
2019-04-06T21:11:24.795Z,35.67
2019-04-06T21:13:55.124Z,36.27
2019-04-06T21:16:25.131Z,33.97
2019-04-06T21:18:55.082Z,37.60
2019-04-06T21:21:25.059Z,33.87
2019-04-06T21:23:55.011Z,31.90
2019-04-06T21:26:24.986Z,32.50
2019-04-06T21:28:55.383Z,36.23
2019-04-06T21:31:25.929Z,37.27
2019-04-06T21:33:56.029Z,36.13
2019-04-06T21:36:26.515Z,37.73
2019-04-06T21:38:57.081Z,33.33
2019-04-06T21:41:27.826Z,35.17
2019-04-06T21:43:58.852Z,37.03
2019-04-06T21:46:29.068Z,37.07
2019-04-06T21:48:58.990Z,34.47
2019-04-06T21:51:28.974Z,38.67
2019-04-06T21:53:58.922Z,38.67
2019-04-06T21:56:28.903Z,33.47
2019-04-06T21:58:59.977Z,34.17
2019-04-06T22:01:30.303Z,34.53
2019-04-06T22:04:00.437Z,34.90
2019-04-06T22:06:30.492Z,38.40
2019-04-06T22:09:00.529Z,39.03
2019-04-06T22:11:32.094Z,36.97
2019-04-06T22:14:02.049Z,41.00
2019-04-06T22:16:32.511Z,38.10
2019-04-06T22:19:02.534Z,36.63
2019-04-06T22:21:32.595Z,38.93
2019-04-06T22:24:03.059Z,37.80
2019-04-06T22:26:33.082Z,33.77
2019-04-06T22:29:03.035Z,35.13
2019-04-06T22:31:33.294Z,37.23
2019-04-06T22:34:03.351Z,34.87
2019-04-06T22:36:33.317Z,36.67
2019-04-06T22:39:04.150Z,34.50
2019-04-06T22:41:35.407Z,37.60
2019-04-06T22:44:05.834Z,39.50
2019-04-06T22:46:35.847Z,36.23
2019-04-06T22:49:05.807Z,39.17
2019-04-06T22:51:35.772Z,38.30
2019-04-06T22:54:05.975Z,36.67
2019-04-06T22:56:36.268Z,33.60
2019-04-06T22:59:06.345Z,39.63
2019-04-06T23:01:37.959Z,38.67
2019-04-06T23:04:15.973Z,40.00
2019-04-06T23:06:48.195Z,36.27
2019-04-06T23:09:18.258Z,36.83
2019-04-06T23:11:48.225Z,35.27
2019-04-06T23:14:18.178Z,40.23
2019-04-06T23:16:48.151Z,43.43
2019-04-06T23:19:18.238Z,41.87
2019-04-06T23:21:48.796Z,43.87
2019-04-06T23:24:19.347Z,38.50
2019-04-06T23:26:49.865Z,38.43
2019-04-06T23:29:19.911Z,41.70
2019-04-06T23:31:49.883Z,42.17
2019-04-06T23:34:20.330Z,41.97
2019-04-06T23:36:51.107Z,38.70
2019-04-06T23:39:21.775Z,41.33
2019-04-06T23:41:51.908Z,40.73
2019-04-06T23:44:21.899Z,39.07
2019-04-06T23:46:51.947Z,41.37
2019-04-06T23:49:22.407Z,45.23
2019-04-06T23:51:52.462Z,39.97
2019-04-06T23:54:23.898Z,41.27
2019-04-06T23:56:54.030Z,45.90
2019-04-06T23:59:24.007Z,39.07
